ノヴォシビルスク の空港の天気 - METARとTAF

トルマチェヴォ空港(ノヴォシビルスク) ( UNNT / OVB ) - ロシア ノヴォシビルスク
飛行場実況気象(Metar)
観測時間10/20 00:00 OMST (10/19 18:00 UTC)
風向・風速南南東 4m/s
視程10km以上
天気現象
全天の8割程度の雲 雲底高度 1310m
気温2℃
湿度87%
気圧1016hPa
METARUNNT 191800Z 16004MPS 9999 BKN043 02/00 Q1016 R25/090070 R16/190065 NOSIG RMK QFE752/1003
過去の天気等 Google飛行場航空写真 Wunderground天気予報

過去48時間のMETAR

飛行場予報(TAF)
発表時間: 10/19 23:00 OMST (10/19 17:00 UTC)
予報対象時間: 20日0時 OMST ~ 21日0時 OMST
風向・風速南南東 3m/s 瞬間風速 8m/s
視程10km以上
全天の8割程度の積乱雲 雲底高度 610m
20日0時 OMST ~ 20日9時 OMST に一時的に
視程600m
天気現象氷霧
全天の8割程度の雲 雲底高度 150m
全天の8割程度の積乱雲 雲底高度 610m
20日9時 OMST ~ 20日11時 OMST に徐々に
風向・風速南南西 6m/s 瞬間風速 12m/s
TAF UNNT 191700Z 1918/2018 15003G08MPS 9999 BKN020CB
TEMPO 1918/2003 0600 FZFG BKN005 BKN020CB
BECMG 2003/2005 20006G12MPS